Terminal Aerodrome Forecast
Issued by NWS

Home | Current Version | Previous Version | Text Only | Print | Product List | Glossary Off
Versions: 1 2 3 4 5 6 7 8 9 10 11 12 13 14 15 16

239
FTUS43 KMPX 161644 AAB
TAFRWF
TAF AMD
KRWF 161644Z 1617/1712 32008KT P6SM FEW025
      TEMPO 1617/1618 BKN025
     FM161800 33012G18KT P6SM BKN025
     FM162100 32012KT P6SM BKN040
     FM170000 31004KT P6SM SKC=

USA.gov is the U.S. government's official web portal to all federal, state and local government web resources and services.